Terminal Aerodrome Forecast
Issued by NWS

Home | Current Version | Previous Version | Text Only | Print | Product List | Glossary On
Versions: 1 2 3 4 5 6 7 8 9 10 11 12 13 14 15 16 17 18 19 20 21 22 23 24 25 26 27
000
FTUS46 KMTR 291739
TAFSFO
TAF
KSFO 291739Z 2918/3024 29013KT P6SM FEW014 BKN019
     FM291830 29014KT P6SM FEW019
     FM291930 28020G30KT P6SM FEW300
     FM300500 28015G22KT P6SM FEW012 SCT250
     FM301000 28011KT P6SM SCT012 SCT250
     FM301200 28009KT P6SM OVC012
     FM301730 28015G22KT P6SM SKC=

USA.gov is the U.S. government's official web portal to all federal, state and local government web resources and services.